sensor_id;sensor_type;location;lat;lon;timestamp;P1;durP1;ratioP1;P2;durP2;ratioP2
49416;SDS011;35290;39.550;8.786;2022-08-19T00:01:26;12.07;;;2.30;;
49416;SDS011;35290;39.550;8.786;2022-08-19T00:03:54;9.38;;;2.80;;
49416;SDS011;35290;39.550;8.786;2022-08-19T00:06:20;7.18;;;2.28;;
49416;SDS011;35290;39.550;8.786;2022-08-19T00:08:46;7.78;;;2.08;;
49416;SDS011;35290;39.550;8.786;2022-08-19T00:11:11;9.43;;;2.33;;
49416;SDS011;35290;39.550;8.786;2022-08-19T00:13:38;9.02;;;2.03;;
49416;SDS011;35290;39.550;8.786;2022-08-19T00:16:04;9.80;;;2.17;;
49416;SDS011;35290;39.550;8.786;2022-08-19T00:18:31;11.48;;;2.47;;
49416;SDS011;35290;39.550;8.786;2022-08-19T00:20:57;8.23;;;2.22;;
49416;SDS011;35290;39.550;8.786;2022-08-19T00:23:24;11.65;;;2.35;;
49416;SDS011;35290;39.550;8.786;2022-08-19T00:25:50;8.77;;;1.92;;
49416;SDS011;35290;39.550;8.786;2022-08-19T00:28:15;12.15;;;2.38;;
49416;SDS011;35290;39.550;8.786;2022-08-19T00:30:41;5.35;;;2.10;;
49416;SDS011;35290;39.550;8.786;2022-08-19T00:33:07;11.20;;;2.15;;
49416;SDS011;35290;39.550;8.786;2022-08-19T00:35:33;6.82;;;1.95;;
49416;SDS011;35290;39.550;8.786;2022-08-19T00:37:58;5.97;;;1.90;;
49416;SDS011;35290;39.550;8.786;2022-08-19T00:40:24;8.48;;;2.30;;
49416;SDS011;35290;39.550;8.786;2022-08-19T00:42:50;14.65;;;3.00;;
49416;SDS011;35290;39.550;8.786;2022-08-19T00:45:23;8.77;;;1.95;;
49416;SDS011;35290;39.550;8.786;2022-08-19T00:47:51;9.27;;;2.55;;
49416;SDS011;35290;39.550;8.786;2022-08-19T00:50:17;10.38;;;2.75;;
49416;SDS011;35290;39.550;8.786;2022-08-19T00:52:45;5.85;;;2.08;;
49416;SDS011;35290;39.550;8.786;2022-08-19T00:55:17;9.05;;;2.40;;
49416;SDS011;35290;39.550;8.786;2022-08-19T00:57:48;8.23;;;2.15;;
49416;SDS011;35290;39.550;8.786;2022-08-19T01:00:17;7.97;;;2.27;;
49416;SDS011;35290;39.550;8.786;2022-08-19T01:02:44;8.40;;;1.85;;
49416;SDS011;35290;39.550;8.786;2022-08-19T01:05:14;7.13;;;2.22;;
49416;SDS011;35290;39.550;8.786;2022-08-19T01:07:43;7.03;;;1.92;;
49416;SDS011;35290;39.550;8.786;2022-08-19T01:10:13;8.05;;;2.00;;
49416;SDS011;35290;39.550;8.786;2022-08-19T01:12:41;11.80;;;2.10;;
49416;SDS011;35290;39.550;8.786;2022-08-19T01:15:08;9.55;;;1.88;;
49416;SDS011;35290;39.550;8.786;2022-08-19T01:17:36;6.85;;;1.80;;
49416;SDS011;35290;39.550;8.786;2022-08-19T01:20:04;8.88;;;2.30;;
49416;SDS011;35290;39.550;8.786;2022-08-19T01:22:34;7.30;;;2.30;;
49416;SDS011;35290;39.550;8.786;2022-08-19T01:25:41;6.28;;;1.98;;
49416;SDS011;35290;39.550;8.786;2022-08-19T01:28:14;9.02;;;2.45;;
49416;SDS011;35290;39.550;8.786;2022-08-19T01:30:51;5.97;;;2.20;;
49416;SDS011;35290;39.550;8.786;2022-08-19T01:33:17;8.65;;;2.10;;
49416;SDS011;35290;39.550;8.786;2022-08-19T01:35:44;8.38;;;2.00;;
49416;SDS011;35290;39.550;8.786;2022-08-19T01:38:19;8.15;;;1.95;;
49416;SDS011;35290;39.550;8.786;2022-08-19T01:40:46;8.88;;;2.05;;
49416;SDS011;35290;39.550;8.786;2022-08-19T01:43:12;9.60;;;1.95;;
49416;SDS011;35290;39.550;8.786;2022-08-19T01:45:37;9.68;;;2.05;;
49416;SDS011;35290;39.550;8.786;2022-08-19T01:48:05;6.50;;;2.00;;
49416;SDS011;35290;39.550;8.786;2022-08-19T01:50:31;6.88;;;1.90;;
49416;SDS011;35290;39.550;8.786;2022-08-19T01:52:57;7.82;;;2.05;;
49416;SDS011;35290;39.550;8.786;2022-08-19T01:55:24;8.15;;;2.65;;
49416;SDS011;35290;39.550;8.786;2022-08-19T01:57:52;5.68;;;2.13;;
49416;SDS011;35290;39.550;8.786;2022-08-19T02:00:21;5.65;;;2.17;;
49416;SDS011;35290;39.550;8.786;2022-08-19T02:02:48;7.53;;;2.20;;
49416;SDS011;35290;39.550;8.786;2022-08-19T02:05:14;7.63;;;2.47;;
49416;SDS011;35290;39.550;8.786;2022-08-19T02:07:43;9.90;;;2.13;;
49416;SDS011;35290;39.550;8.786;2022-08-19T02:10:14;3.35;;;1.90;;
49416;SDS011;35290;39.550;8.786;2022-08-19T02:12:42;9.32;;;2.38;;
49416;SDS011;35290;39.550;8.786;2022-08-19T02:15:07;8.10;;;2.47;;
49416;SDS011;35290;39.550;8.786;2022-08-19T02:17:33;5.20;;;1.90;;
49416;SDS011;35290;39.550;8.786;2022-08-19T02:20:20;6.80;;;1.80;;
49416;SDS011;35290;39.550;8.786;2022-08-19T02:25:36;6.95;;;2.10;;
49416;SDS011;35290;39.550;8.786;2022-08-19T02:28:03;9.98;;;2.25;;
49416;SDS011;35290;39.550;8.786;2022-08-19T02:30:28;7.93;;;2.20;;
49416;SDS011;35290;39.550;8.786;2022-08-19T02:32:55;5.75;;;1.88;;
49416;SDS011;35290;39.550;8.786;2022-08-19T02:35:20;6.82;;;1.70;;
49416;SDS011;35290;39.550;8.786;2022-08-19T02:37:46;6.97;;;2.10;;
49416;SDS011;35290;39.550;8.786;2022-08-19T02:40:30;7.65;;;2.03;;
49416;SDS011;35290;39.550;8.786;2022-08-19T02:43:00;11.75;;;3.00;;
49416;SDS011;35290;39.550;8.786;2022-08-19T02:45:26;5.68;;;2.45;;
49416;SDS011;35290;39.550;8.786;2022-08-19T02:47:52;6.55;;;2.25;;
49416;SDS011;35290;39.550;8.786;2022-08-19T02:50:18;9.95;;;2.33;;
49416;SDS011;35290;39.550;8.786;2022-08-19T02:52:43;6.50;;;1.83;;
49416;SDS011;35290;39.550;8.786;2022-08-19T02:55:09;6.80;;;2.03;;
49416;SDS011;35290;39.550;8.786;2022-08-19T02:57:35;5.97;;;1.75;;
49416;SDS011;35290;39.550;8.786;2022-08-19T03:00:03;7.00;;;2.08;;
49416;SDS011;35290;39.550;8.786;2022-08-19T03:02:30;7.28;;;2.10;;
49416;SDS011;35290;39.550;8.786;2022-08-19T03:04:55;7.53;;;2.55;;
49416;SDS011;35290;39.550;8.786;2022-08-19T03:07:21;4.43;;;1.80;;
49416;SDS011;35290;39.550;8.786;2022-08-19T03:09:46;7.07;;;1.85;;
49416;SDS011;35290;39.550;8.786;2022-08-19T03:12:12;8.30;;;2.03;;
49416;SDS011;35290;39.550;8.786;2022-08-19T03:14:37;11.02;;;2.05;;
49416;SDS011;35290;39.550;8.786;2022-08-19T03:17:03;5.78;;;1.80;;
49416;SDS011;35290;39.550;8.786;2022-08-19T03:19:29;8.23;;;2.05;;
49416;SDS011;35290;39.550;8.786;2022-08-19T03:21:56;9.40;;;1.92;;
49416;SDS011;35290;39.550;8.786;2022-08-19T03:24:22;9.23;;;2.50;;
49416;SDS011;35290;39.550;8.786;2022-08-19T03:26:49;7.15;;;2.00;;
49416;SDS011;35290;39.550;8.786;2022-08-19T03:29:17;6.32;;;1.80;;
49416;SDS011;35290;39.550;8.786;2022-08-19T03:31:44;8.02;;;2.20;;
49416;SDS011;35290;39.550;8.786;2022-08-19T03:34:11;7.65;;;2.20;;
49416;SDS011;35290;39.550;8.786;2022-08-19T03:36:38;8.27;;;2.13;;
49416;SDS011;35290;39.550;8.786;2022-08-19T03:39:04;9.45;;;2.08;;
49416;SDS011;35290;39.550;8.786;2022-08-19T03:41:32;6.00;;;2.00;;
49416;SDS011;35290;39.550;8.786;2022-08-19T03:44:01;8.35;;;2.00;;
49416;SDS011;35290;39.550;8.786;2022-08-19T03:46:29;7.55;;;2.25;;
49416;SDS011;35290;39.550;8.786;2022-08-19T03:48:57;5.13;;;1.67;;
49416;SDS011;35290;39.550;8.786;2022-08-19T03:51:27;12.30;;;2.30;;
49416;SDS011;35290;39.550;8.786;2022-08-19T03:54:00;6.45;;;1.90;;
49416;SDS011;35290;39.550;8.786;2022-08-19T03:56:27;6.13;;;2.20;;
49416;SDS011;35290;39.550;8.786;2022-08-19T03:58:53;7.18;;;1.90;;
49416;SDS011;35290;39.550;8.786;2022-08-19T04:01:21;7.35;;;1.92;;
49416;SDS011;35290;39.550;8.786;2022-08-19T04:03:48;6.97;;;2.33;;
49416;SDS011;35290;39.550;8.786;2022-08-19T04:06:18;6.30;;;2.00;;
49416;SDS011;35290;39.550;8.786;2022-08-19T04:08:47;5.57;;;1.77;;
49416;SDS011;35290;39.550;8.786;2022-08-19T04:11:16;7.53;;;2.28;;
49416;SDS011;35290;39.550;8.786;2022-08-19T04:13:42;7.90;;;2.30;;
49416;SDS011;35290;39.550;8.786;2022-08-19T04:16:09;5.28;;;2.20;;
49416;SDS011;35290;39.550;8.786;2022-08-19T04:18:35;8.65;;;2.20;;
49416;SDS011;35290;39.550;8.786;2022-08-19T04:21:02;4.35;;;1.70;;
49416;SDS011;35290;39.550;8.786;2022-08-19T04:23:28;9.60;;;1.98;;
49416;SDS011;35290;39.550;8.786;2022-08-19T04:25:54;6.05;;;1.90;;
49416;SDS011;35290;39.550;8.786;2022-08-19T04:28:20;5.93;;;2.00;;
49416;SDS011;35290;39.550;8.786;2022-08-19T04:30:47;6.47;;;1.98;;
49416;SDS011;35290;39.550;8.786;2022-08-19T04:33:15;8.32;;;2.03;;
49416;SDS011;35290;39.550;8.786;2022-08-19T04:35:45;6.88;;;1.77;;
49416;SDS011;35290;39.550;8.786;2022-08-19T04:38:12;6.25;;;2.00;;
49416;SDS011;35290;39.550;8.786;2022-08-19T04:40:42;13.68;;;2.45;;
49416;SDS011;35290;39.550;8.786;2022-08-19T04:43:31;10.18;;;2.53;;
49416;SDS011;35290;39.550;8.786;2022-08-19T04:45:58;6.85;;;2.45;;
49416;SDS011;35290;39.550;8.786;2022-08-19T04:48:23;9.30;;;2.80;;
49416;SDS011;35290;39.550;8.786;2022-08-19T04:50:55;10.20;;;2.72;;
49416;SDS011;35290;39.550;8.786;2022-08-19T04:53:26;10.60;;;2.80;;
49416;SDS011;35290;39.550;8.786;2022-08-19T04:55:56;11.20;;;2.20;;
49416;SDS011;35290;39.550;8.786;2022-08-19T04:58:22;12.48;;;2.22;;
49416;SDS011;35290;39.550;8.786;2022-08-19T05:00:49;10.32;;;2.05;;
49416;SDS011;35290;39.550;8.786;2022-08-19T05:03:14;11.75;;;1.92;;
49416;SDS011;35290;39.550;8.786;2022-08-19T05:05:42;12.95;;;2.20;;
49416;SDS011;35290;39.550;8.786;2022-08-19T05:08:08;14.23;;;2.45;;
49416;SDS011;35290;39.550;8.786;2022-08-19T05:10:35;7.50;;;1.92;;
49416;SDS011;35290;39.550;8.786;2022-08-19T05:13:01;10.20;;;2.17;;
49416;SDS011;35290;39.550;8.786;2022-08-19T05:15:27;7.55;;;2.50;;
49416;SDS011;35290;39.550;8.786;2022-08-19T05:17:53;12.52;;;2.83;;
49416;SDS011;35290;39.550;8.786;2022-08-19T05:20:37;12.35;;;2.78;;
49416;SDS011;35290;39.550;8.786;2022-08-19T05:23:22;11.77;;;2.05;;
49416;SDS011;35290;39.550;8.786;2022-08-19T05:25:47;11.38;;;2.33;;
49416;SDS011;35290;39.550;8.786;2022-08-19T05:28:13;7.65;;;1.95;;
49416;SDS011;35290;39.550;8.786;2022-08-19T05:30:38;14.75;;;2.63;;
49416;SDS011;35290;39.550;8.786;2022-08-19T05:33:06;14.88;;;2.53;;
49416;SDS011;35290;39.550;8.786;2022-08-19T05:35:35;9.88;;;2.15;;
49416;SDS011;35290;39.550;8.786;2022-08-19T05:38:02;14.15;;;3.08;;
49416;SDS011;35290;39.550;8.786;2022-08-19T05:40:27;14.48;;;2.63;;
49416;SDS011;35290;39.550;8.786;2022-08-19T05:42:53;12.68;;;2.42;;
49416;SDS011;35290;39.550;8.786;2022-08-19T05:45:20;11.95;;;2.80;;
49416;SDS011;35290;39.550;8.786;2022-08-19T05:47:46;10.07;;;2.55;;
49416;SDS011;35290;39.550;8.786;2022-08-19T05:50:12;14.32;;;2.60;;
49416;SDS011;35290;39.550;8.786;2022-08-19T05:52:38;7.63;;;2.25;;
49416;SDS011;35290;39.550;8.786;2022-08-19T05:55:04;9.40;;;2.45;;
49416;SDS011;35290;39.550;8.786;2022-08-19T05:57:30;13.48;;;2.78;;
49416;SDS011;35290;39.550;8.786;2022-08-19T05:59:59;8.82;;;2.33;;
49416;SDS011;35290;39.550;8.786;2022-08-19T06:02:27;9.98;;;2.50;;
49416;SDS011;35290;39.550;8.786;2022-08-19T06:04:53;9.15;;;2.30;;
49416;SDS011;35290;39.550;8.786;2022-08-19T06:07:18;12.18;;;2.70;;
49416;SDS011;35290;39.550;8.786;2022-08-19T06:09:44;16.10;;;2.67;;
49416;SDS011;35290;39.550;8.786;2022-08-19T06:12:10;13.82;;;2.97;;
49416;SDS011;35290;39.550;8.786;2022-08-19T06:14:36;12.07;;;2.67;;
49416;SDS011;35290;39.550;8.786;2022-08-19T06:17:02;11.20;;;2.90;;
49416;SDS011;35290;39.550;8.786;2022-08-19T06:19:28;12.30;;;2.72;;
49416;SDS011;35290;39.550;8.786;2022-08-19T06:21:55;15.85;;;3.13;;
49416;SDS011;35290;39.550;8.786;2022-08-19T06:24:24;11.27;;;2.65;;
49416;SDS011;35290;39.550;8.786;2022-08-19T06:26:51;10.40;;;3.03;;
49416;SDS011;35290;39.550;8.786;2022-08-19T06:29:18;9.52;;;2.40;;
49416;SDS011;35290;39.550;8.786;2022-08-19T06:31:46;11.57;;;2.67;;
49416;SDS011;35290;39.550;8.786;2022-08-19T06:34:14;16.85;;;2.90;;
49416;SDS011;35290;39.550;8.786;2022-08-19T06:36:41;12.40;;;2.75;;
49416;SDS011;35290;39.550;8.786;2022-08-19T06:39:15;15.63;;;2.78;;
49416;SDS011;35290;39.550;8.786;2022-08-19T06:41:44;10.82;;;2.83;;
49416;SDS011;35290;39.550;8.786;2022-08-19T06:44:11;12.48;;;2.83;;
49416;SDS011;35290;39.550;8.786;2022-08-19T06:46:38;13.00;;;2.53;;
49416;SDS011;35290;39.550;8.786;2022-08-19T06:49:05;15.18;;;2.75;;
49416;SDS011;35290;39.550;8.786;2022-08-19T06:51:33;12.55;;;2.47;;
49416;SDS011;35290;39.550;8.786;2022-08-19T06:53:59;13.02;;;2.80;;
49416;SDS011;35290;39.550;8.786;2022-08-19T06:56:26;13.77;;;2.50;;
49416;SDS011;35290;39.550;8.786;2022-08-19T06:59:03;14.43;;;2.95;;
49416;SDS011;35290;39.550;8.786;2022-08-19T07:01:33;18.15;;;3.88;;
49416;SDS011;35290;39.550;8.786;2022-08-19T07:06:27;13.82;;;2.67;;
49416;SDS011;35290;39.550;8.786;2022-08-19T07:08:56;15.63;;;3.10;;
49416;SDS011;35290;39.550;8.786;2022-08-19T07:11:23;13.75;;;2.83;;
49416;SDS011;35290;39.550;8.786;2022-08-19T07:13:48;13.55;;;2.90;;
49416;SDS011;35290;39.550;8.786;2022-08-19T07:16:17;11.10;;;3.00;;
49416;SDS011;35290;39.550;8.786;2022-08-19T07:18:50;15.00;;;2.92;;
49416;SDS011;35290;39.550;8.786;2022-08-19T07:21:17;11.10;;;2.70;;
49416;SDS011;35290;39.550;8.786;2022-08-19T07:23:44;10.02;;;2.70;;
49416;SDS011;35290;39.550;8.786;2022-08-19T07:26:15;10.43;;;2.60;;
49416;SDS011;35290;39.550;8.786;2022-08-19T07:28:44;13.23;;;3.50;;
49416;SDS011;35290;39.550;8.786;2022-08-19T07:31:14;8.20;;;2.60;;
49416;SDS011;35290;39.550;8.786;2022-08-19T07:33:43;10.10;;;2.83;;
49416;SDS011;35290;39.550;8.786;2022-08-19T07:36:09;13.18;;;2.80;;
49416;SDS011;35290;39.550;8.786;2022-08-19T07:38:36;11.88;;;2.60;;
49416;SDS011;35290;39.550;8.786;2022-08-19T07:41:04;17.10;;;3.28;;
49416;SDS011;35290;39.550;8.786;2022-08-19T07:43:30;10.23;;;2.65;;
49416;SDS011;35290;39.550;8.786;2022-08-19T07:45:56;9.90;;;2.70;;
49416;SDS011;35290;39.550;8.786;2022-08-19T07:48:25;12.98;;;2.85;;
49416;SDS011;35290;39.550;8.786;2022-08-19T07:50:55;15.32;;;3.00;;
49416;SDS011;35290;39.550;8.786;2022-08-19T07:53:23;10.17;;;3.23;;
49416;SDS011;35290;39.550;8.786;2022-08-19T07:55:50;14.82;;;3.20;;
49416;SDS011;35290;39.550;8.786;2022-08-19T07:58:16;16.00;;;3.78;;
49416;SDS011;35290;39.550;8.786;2022-08-19T08:00:43;11.57;;;3.33;;
49416;SDS011;35290;39.550;8.786;2022-08-19T08:03:11;13.48;;;2.97;;
49416;SDS011;35290;39.550;8.786;2022-08-19T08:05:38;15.75;;;3.00;;
49416;SDS011;35290;39.550;8.786;2022-08-19T08:08:22;14.70;;;2.78;;
49416;SDS011;35290;39.550;8.786;2022-08-19T08:11:07;13.57;;;2.92;;
49416;SDS011;35290;39.550;8.786;2022-08-19T08:13:39;11.55;;;2.72;;
49416;SDS011;35290;39.550;8.786;2022-08-19T08:16:06;11.85;;;2.25;;
49416;SDS011;35290;39.550;8.786;2022-08-19T08:18:32;9.07;;;2.78;;
49416;SDS011;35290;39.550;8.786;2022-08-19T08:20:59;13.45;;;3.40;;
49416;SDS011;35290;39.550;8.786;2022-08-19T08:23:25;10.73;;;3.38;;
49416;SDS011;35290;39.550;8.786;2022-08-19T08:25:52;13.40;;;3.00;;
49416;SDS011;35290;39.550;8.786;2022-08-19T08:28:19;13.35;;;2.88;;
49416;SDS011;35290;39.550;8.786;2022-08-19T08:30:46;19.48;;;3.58;;
49416;SDS011;35290;39.550;8.786;2022-08-19T08:33:14;12.43;;;2.97;;
49416;SDS011;35290;39.550;8.786;2022-08-19T08:35:42;8.38;;;2.42;;
49416;SDS011;35290;39.550;8.786;2022-08-19T08:38:08;13.57;;;2.70;;
49416;SDS011;35290;39.550;8.786;2022-08-19T08:49:33;14.27;;;2.47;;
49416;SDS011;35290;39.550;8.786;2022-08-19T08:51:32;15.20;;;2.78;;
49416;SDS011;35290;39.550;8.786;2022-08-19T08:54:05;9.40;;;2.70;;
49416;SDS011;35290;39.550;8.786;2022-08-19T08:56:32;9.57;;;2.25;;
49416;SDS011;35290;39.550;8.786;2022-08-19T08:59:43;10.18;;;2.63;;
49416;SDS011;35290;39.550;8.786;2022-08-19T09:01:51;12.60;;;2.78;;
49416;SDS011;35290;39.550;8.786;2022-08-19T09:04:17;12.98;;;2.45;;
49416;SDS011;35290;39.550;8.786;2022-08-19T09:06:55;16.40;;;2.90;;
49416;SDS011;35290;39.550;8.786;2022-08-19T09:09:41;11.75;;;2.72;;
49416;SDS011;35290;39.550;8.786;2022-08-19T09:12:31;10.88;;;2.40;;
49416;SDS011;35290;39.550;8.786;2022-08-19T09:15:05;11.55;;;2.45;;
49416;SDS011;35290;39.550;8.786;2022-08-19T09:17:33;10.73;;;2.75;;
49416;SDS011;35290;39.550;8.786;2022-08-19T09:22:39;5.65;;;1.95;;
49416;SDS011;35290;39.550;8.786;2022-08-19T09:25:09;11.40;;;2.17;;
49416;SDS011;35290;39.550;8.786;2022-08-19T09:27:36;9.68;;;2.58;;
49416;SDS011;35290;39.550;8.786;2022-08-19T09:30:04;12.43;;;2.33;;
49416;SDS011;35290;39.550;8.786;2022-08-19T09:32:31;7.93;;;2.08;;
49416;SDS011;35290;39.550;8.786;2022-08-19T09:34:57;8.70;;;2.00;;
49416;SDS011;35290;39.550;8.786;2022-08-19T09:37:28;9.38;;;2.63;;
49416;SDS011;35290;39.550;8.786;2022-08-19T09:39:57;8.93;;;2.03;;
49416;SDS011;35290;39.550;8.786;2022-08-19T09:42:22;11.07;;;2.25;;
49416;SDS011;35290;39.550;8.786;2022-08-19T09:44:48;6.18;;;2.15;;
49416;SDS011;35290;39.550;8.786;2022-08-19T09:47:14;12.77;;;2.70;;
49416;SDS011;35290;39.550;8.786;2022-08-19T09:49:40;9.60;;;2.63;;
49416;SDS011;35290;39.550;8.786;2022-08-19T09:52:07;10.07;;;2.30;;
49416;SDS011;35290;39.550;8.786;2022-08-19T09:54:33;10.60;;;2.20;;
49416;SDS011;35290;39.550;8.786;2022-08-19T09:56:59;9.60;;;2.20;;
49416;SDS011;35290;39.550;8.786;2022-08-19T09:59:25;10.63;;;2.65;;
49416;SDS011;35290;39.550;8.786;2022-08-19T10:01:51;11.52;;;2.30;;
49416;SDS011;35290;39.550;8.786;2022-08-19T10:04:17;9.32;;;2.22;;
49416;SDS011;35290;39.550;8.786;2022-08-19T10:06:42;6.13;;;1.65;;
49416;SDS011;35290;39.550;8.786;2022-08-19T10:09:08;8.60;;;2.08;;
49416;SDS011;35290;39.550;8.786;2022-08-19T10:11:36;10.30;;;2.38;;
49416;SDS011;35290;39.550;8.786;2022-08-19T10:14:02;8.52;;;2.00;;
49416;SDS011;35290;39.550;8.786;2022-08-19T10:16:30;13.40;;;2.60;;
49416;SDS011;35290;39.550;8.786;2022-08-19T10:18:56;11.77;;;2.90;;
49416;SDS011;35290;39.550;8.786;2022-08-19T10:21:24;12.13;;;2.50;;
49416;SDS011;35290;39.550;8.786;2022-08-19T10:23:51;9.38;;;2.20;;
49416;SDS011;35290;39.550;8.786;2022-08-19T10:26:20;14.77;;;2.58;;
49416;SDS011;35290;39.550;8.786;2022-08-19T10:28:47;12.80;;;2.25;;
49416;SDS011;35290;39.550;8.786;2022-08-19T10:31:18;11.27;;;2.55;;
49416;SDS011;35290;39.550;8.786;2022-08-19T10:33:46;10.80;;;2.50;;
49416;SDS011;35290;39.550;8.786;2022-08-19T10:36:17;13.30;;;3.30;;
49416;SDS011;35290;39.550;8.786;2022-08-19T10:41:15;19.02;;;3.20;;
49416;SDS011;35290;39.550;8.786;2022-08-19T10:43:42;14.50;;;3.70;;
49416;SDS011;35290;39.550;8.786;2022-08-19T10:46:11;9.68;;;2.60;;
49416;SDS011;35290;39.550;8.786;2022-08-19T10:48:40;10.38;;;3.00;;
49416;SDS011;35290;39.550;8.786;2022-08-19T10:51:06;11.02;;;2.72;;
49416;SDS011;35290;39.550;8.786;2022-08-19T10:53:51;9.73;;;2.63;;
49416;SDS011;35290;39.550;8.786;2022-08-19T10:56:16;10.57;;;2.70;;
49416;SDS011;35290;39.550;8.786;2022-08-19T10:59:02;12.10;;;2.70;;
49416;SDS011;35290;39.550;8.786;2022-08-19T11:01:28;9.27;;;2.35;;
49416;SDS011;35290;39.550;8.786;2022-08-19T11:03:56;9.40;;;2.20;;
49416;SDS011;35290;39.550;8.786;2022-08-19T11:06:25;12.00;;;2.50;;
49416;SDS011;35290;39.550;8.786;2022-08-19T11:08:51;13.05;;;3.25;;
49416;SDS011;35290;39.550;8.786;2022-08-19T11:11:18;13.10;;;2.75;;
49416;SDS011;35290;39.550;8.786;2022-08-19T11:13:43;10.57;;;2.38;;
49416;SDS011;35290;39.550;8.786;2022-08-19T11:16:11;9.68;;;2.55;;
49416;SDS011;35290;39.550;8.786;2022-08-19T11:18:40;14.48;;;2.53;;
49416;SDS011;35290;39.550;8.786;2022-08-19T11:21:13;12.73;;;2.17;;
49416;SDS011;35290;39.550;8.786;2022-08-19T11:23:39;10.95;;;2.25;;
49416;SDS011;35290;39.550;8.786;2022-08-19T11:26:05;10.30;;;2.60;;
49416;SDS011;35290;39.550;8.786;2022-08-19T11:28:31;11.35;;;2.30;;
49416;SDS011;35290;39.550;8.786;2022-08-19T11:30:59;9.77;;;2.67;;
49416;SDS011;35290;39.550;8.786;2022-08-19T11:33:25;7.95;;;1.92;;
49416;SDS011;35290;39.550;8.786;2022-08-19T11:35:51;6.65;;;1.98;;
49416;SDS011;35290;39.550;8.786;2022-08-19T11:38:23;7.70;;;2.35;;
49416;SDS011;35290;39.550;8.786;2022-08-19T11:40:55;10.52;;;2.63;;
49416;SDS011;35290;39.550;8.786;2022-08-19T11:43:21;11.70;;;2.42;;
49416;SDS011;35290;39.550;8.786;2022-08-19T11:45:47;10.18;;;2.55;;
49416;SDS011;35290;39.550;8.786;2022-08-19T11:48:13;8.98;;;2.58;;
49416;SDS011;35290;39.550;8.786;2022-08-19T11:50:39;9.48;;;2.65;;
49416;SDS011;35290;39.550;8.786;2022-08-19T11:53:06;7.03;;;2.30;;
49416;SDS011;35290;39.550;8.786;2022-08-19T11:55:31;10.70;;;2.80;;
49416;SDS011;35290;39.550;8.786;2022-08-19T11:57:57;12.38;;;2.90;;
49416;SDS011;35290;39.550;8.786;2022-08-19T12:00:23;9.50;;;2.35;;
49416;SDS011;35290;39.550;8.786;2022-08-19T12:02:48;10.65;;;2.50;;
49416;SDS011;35290;39.550;8.786;2022-08-19T12:05:13;12.85;;;2.63;;
49416;SDS011;35290;39.550;8.786;2022-08-19T12:07:39;11.93;;;2.92;;
49416;SDS011;35290;39.550;8.786;2022-08-19T12:10:06;9.57;;;2.67;;
49416;SDS011;35290;39.550;8.786;2022-08-19T12:12:32;10.13;;;2.65;;
49416;SDS011;35290;39.550;8.786;2022-08-19T12:14:57;6.22;;;1.70;;
49416;SDS011;35290;39.550;8.786;2022-08-19T12:17:24;10.52;;;2.88;;
49416;SDS011;35290;39.550;8.786;2022-08-19T12:19:53;8.70;;;2.60;;
49416;SDS011;35290;39.550;8.786;2022-08-19T12:22:19;7.35;;;2.28;;
49416;SDS011;35290;39.550;8.786;2022-08-19T12:24:45;11.05;;;2.22;;
49416;SDS011;35290;39.550;8.786;2022-08-19T12:27:11;11.05;;;2.17;;
49416;SDS011;35290;39.550;8.786;2022-08-19T12:29:36;9.13;;;2.25;;
49416;SDS011;35290;39.550;8.786;2022-08-19T12:32:02;8.82;;;2.30;;
49416;SDS011;35290;39.550;8.786;2022-08-19T12:34:29;9.00;;;2.30;;
49416;SDS011;35290;39.550;8.786;2022-08-19T12:36:56;6.97;;;2.30;;
49416;SDS011;35290;39.550;8.786;2022-08-19T12:39:23;6.78;;;2.10;;
49416;SDS011;35290;39.550;8.786;2022-08-19T12:41:48;10.20;;;2.63;;
49416;SDS011;35290;39.550;8.786;2022-08-19T12:44:14;9.40;;;2.58;;
49416;SDS011;35290;39.550;8.786;2022-08-19T12:46:40;9.30;;;2.42;;
49416;SDS011;35290;39.550;8.786;2022-08-19T12:49:06;10.07;;;2.53;;
49416;SDS011;35290;39.550;8.786;2022-08-19T12:51:31;9.73;;;2.63;;
49416;SDS011;35290;39.550;8.786;2022-08-19T12:53:57;12.50;;;2.88;;
49416;SDS011;35290;39.550;8.786;2022-08-19T12:56:22;14.85;;;2.97;;
49416;SDS011;35290;39.550;8.786;2022-08-19T12:58:48;12.95;;;2.83;;
49416;SDS011;35290;39.550;8.786;2022-08-19T13:01:15;10.95;;;2.50;;
49416;SDS011;35290;39.550;8.786;2022-08-19T13:03:50;11.90;;;2.42;;
49416;SDS011;35290;39.550;8.786;2022-08-19T13:06:18;10.35;;;2.70;;
49416;SDS011;35290;39.550;8.786;2022-08-19T13:08:44;13.02;;;3.22;;
49416;SDS011;35290;39.550;8.786;2022-08-19T13:11:14;13.15;;;3.50;;
49416;SDS011;35290;39.550;8.786;2022-08-19T13:13:45;14.13;;;3.38;;
49416;SDS011;35290;39.550;8.786;2022-08-19T13:16:18;15.27;;;3.72;;
49416;SDS011;35290;39.550;8.786;2022-08-19T13:18:45;18.20;;;4.07;;
49416;SDS011;35290;39.550;8.786;2022-08-19T13:21:12;14.27;;;3.15;;
49416;SDS011;35290;39.550;8.786;2022-08-19T13:23:38;16.33;;;3.78;;
49416;SDS011;35290;39.550;8.786;2022-08-19T13:26:09;16.15;;;3.28;;
49416;SDS011;35290;39.550;8.786;2022-08-19T13:28:36;15.85;;;3.85;;
49416;SDS011;35290;39.550;8.786;2022-08-19T13:31:22;14.68;;;3.35;;
49416;SDS011;35290;39.550;8.786;2022-08-19T13:34:07;13.25;;;3.40;;
49416;SDS011;35290;39.550;8.786;2022-08-19T13:36:39;14.55;;;3.20;;
49416;SDS011;35290;39.550;8.786;2022-08-19T13:39:07;15.23;;;3.33;;
49416;SDS011;35290;39.550;8.786;2022-08-19T13:41:34;14.95;;;3.20;;
49416;SDS011;35290;39.550;8.786;2022-08-19T13:44:01;14.88;;;3.30;;
49416;SDS011;35290;39.550;8.786;2022-08-19T13:46:31;17.67;;;3.80;;
49416;SDS011;35290;39.550;8.786;2022-08-19T13:49:00;10.48;;;3.20;;
49416;SDS011;35290;39.550;8.786;2022-08-19T13:51:25;17.13;;;4.63;;
49416;SDS011;35290;39.550;8.786;2022-08-19T13:53:51;16.77;;;3.58;;
49416;SDS011;35290;39.550;8.786;2022-08-19T13:56:29;16.70;;;4.38;;
49416;SDS011;35290;39.550;8.786;2022-08-19T13:58:54;12.35;;;4.00;;
49416;SDS011;35290;39.550;8.786;2022-08-19T14:01:21;19.90;;;3.90;;
49416;SDS011;35290;39.550;8.786;2022-08-19T14:03:47;16.45;;;3.78;;
49416;SDS011;35290;39.550;8.786;2022-08-19T14:06:16;12.50;;;3.55;;
49416;SDS011;35290;39.550;8.786;2022-08-19T14:08:44;18.17;;;3.92;;
49416;SDS011;35290;39.550;8.786;2022-08-19T14:11:11;10.32;;;2.60;;
49416;SDS011;35290;39.550;8.786;2022-08-19T14:13:39;11.73;;;3.10;;
49416;SDS011;35290;39.550;8.786;2022-08-19T14:16:08;15.90;;;4.93;;
49416;SDS011;35290;39.550;8.786;2022-08-19T14:18:35;11.82;;;2.63;;
49416;SDS011;35290;39.550;8.786;2022-08-19T14:21:02;18.65;;;3.35;;
49416;SDS011;35290;39.550;8.786;2022-08-19T14:23:33;10.10;;;2.80;;
49416;SDS011;35290;39.550;8.786;2022-08-19T14:26:03;11.52;;;3.00;;
49416;SDS011;35290;39.550;8.786;2022-08-19T14:28:36;12.23;;;2.90;;
49416;SDS011;35290;39.550;8.786;2022-08-19T14:31:04;9.95;;;2.85;;
49416;SDS011;35290;39.550;8.786;2022-08-19T14:33:31;10.30;;;3.17;;
49416;SDS011;35290;39.550;8.786;2022-08-19T14:35:57;16.00;;;3.45;;
49416;SDS011;35290;39.550;8.786;2022-08-19T14:38:23;14.02;;;3.40;;
49416;SDS011;35290;39.550;8.786;2022-08-19T14:40:48;14.73;;;3.05;;
49416;SDS011;35290;39.550;8.786;2022-08-19T14:43:16;9.65;;;2.63;;
49416;SDS011;35290;39.550;8.786;2022-08-19T14:45:45;12.45;;;3.05;;
49416;SDS011;35290;39.550;8.786;2022-08-19T14:48:10;8.95;;;2.70;;
49416;SDS011;35290;39.550;8.786;2022-08-19T14:50:36;12.32;;;2.90;;
49416;SDS011;35290;39.550;8.786;2022-08-19T14:53:11;11.07;;;3.33;;
49416;SDS011;35290;39.550;8.786;2022-08-19T14:55:39;12.98;;;3.25;;
49416;SDS011;35290;39.550;8.786;2022-08-19T14:58:07;13.57;;;3.03;;
49416;SDS011;35290;39.550;8.786;2022-08-19T15:00:33;11.88;;;3.35;;
49416;SDS011;35290;39.550;8.786;2022-08-19T15:02:59;14.05;;;4.03;;
49416;SDS011;35290;39.550;8.786;2022-08-19T15:05:26;12.50;;;3.13;;